首页
METAR-TAF:

METAR-TAF

机场 :

加里, 印第安纳州, 美国

纬度: 41-37N, 经度: 087-25W, 海拔: 180米

当前天气观测

该预报发布于25分钟前的07:35 UTC
风速15节,风向西,有时为21节阵风
温度 -3°C
湿度 63%
气压 1013 hPa
能見度: 16.1公里
阴天层高于1900英尺

METAR: KGYY 100735Z AUTO 28015G21KT 10SM OVC019 M03/M09 A2990 RMK AO2 T10351087

时间: 02:00 (08:00 UTC)

预报

该预报发布于2小时和28分钟前的05:32 UTC
预报有效从10日的 06点(UTC)到 11日的 06点(UTC)
风速14节,风向西,有时为22节阵风
能見度: 10公里
阴天层高于1800英尺
从 10日的 1100点(UTC)
风速12节,风向西
能見度: 10公里
天空无云

TAF: KGYY 100532Z 1006/1106 27014G22KT P6SM OVC018 FM101100 27012KT P6SM SKC

超过4000个机场的气象观测和天气预报(METAR&TAF报告)。

可查询的气象台以黄色和红色小点在地图上表示。

将鼠标移到小点上方,可查看气象台名称。

然后点击查看天气观测和预报。

如需切换地图:点击带黑十字的绿色按钮放大地图;点击带横线的绿色按钮缩小地图;或者点击绿色箭头查看邻近地区的地图。


METAR-TAF: